createdAt,value
2018-03-23T00:02:12.951Z,11.10
2018-03-23T00:04:39.963Z,11.63
2018-03-23T00:07:07.989Z,11.67
2018-03-23T00:09:35.005Z,10.97
2018-03-23T00:19:53.236Z,12.03
2018-03-23T00:22:20.244Z,12.00
2018-03-23T00:24:47.258Z,12.13
2018-03-23T00:27:14.304Z,10.80
2018-03-23T00:29:41.327Z,12.00
2018-03-23T00:32:09.291Z,10.87
2018-03-23T00:34:36.365Z,11.53
2018-03-23T00:37:03.384Z,13.13
2018-03-23T00:39:30.416Z,12.30
2018-03-23T00:41:57.869Z,12.53
2018-03-23T00:44:24.886Z,12.40
2018-03-23T00:46:52.872Z,11.23
2018-03-23T00:49:20.793Z,12.17
2018-03-23T00:51:48.765Z,12.33
2018-03-23T00:54:15.846Z,13.50
2018-03-23T00:56:42.888Z,12.23
2018-03-23T00:59:09.894Z,15.13
2018-03-23T01:01:36.908Z,13.53
2018-03-23T01:04:05.324Z,15.00
2018-03-23T01:06:33.209Z,15.47
2018-03-23T01:09:00.208Z,14.77
2018-03-23T01:11:27.264Z,14.43
2018-03-23T01:13:55.218Z,14.60
2018-03-23T01:16:23.189Z,15.57
2018-03-23T01:18:51.189Z,15.63
2018-03-23T01:21:19.250Z,15.00
2018-03-23T01:23:47.222Z,14.97
2018-03-23T01:26:14.290Z,14.10
2018-03-23T01:28:42.256Z,14.27
2018-03-23T01:31:09.301Z,15.53
2018-03-23T01:33:36.632Z,15.67
2018-03-23T01:36:03.657Z,15.33
2018-03-23T01:38:32.292Z,16.43
2018-03-23T01:43:38.997Z,22.42
2018-03-23T01:46:06.073Z,19.37
2018-03-23T01:48:33.085Z,16.50
2018-03-23T01:51:00.113Z,16.13
2018-03-23T01:53:39.595Z,16.40
2018-03-23T01:56:06.616Z,15.87
2018-03-23T01:58:33.652Z,16.10
2018-03-23T02:01:00.696Z,16.37
2018-03-23T02:03:27.722Z,16.50
2018-03-23T02:05:55.565Z,16.63
2018-03-23T02:08:22.641Z,17.97
2018-03-23T02:10:50.428Z,16.33
2018-03-23T02:13:17.481Z,16.43
2018-03-23T02:15:45.514Z,17.47
2018-03-23T02:18:12.627Z,16.23
2018-03-23T02:20:39.641Z,15.83
2018-03-23T02:23:06.686Z,16.20
2018-03-23T02:25:34.547Z,16.93
2018-03-23T02:28:01.559Z,18.03
2018-03-23T02:30:28.738Z,17.63
2018-03-23T02:32:55.757Z,16.50
2018-03-23T02:35:23.632Z,16.97
2018-03-23T02:37:50.766Z,17.57
2018-03-23T02:40:17.791Z,16.20
2018-03-23T02:42:44.816Z,15.37
2018-03-23T02:45:12.835Z,15.70
2018-03-23T02:47:39.946Z,15.53
2018-03-23T02:50:07.809Z,14.73
2018-03-23T02:52:34.887Z,14.80
2018-03-23T02:55:02.827Z,14.70
2018-03-23T02:57:29.817Z,15.87
2018-03-23T02:59:56.879Z,16.47
2018-03-23T03:02:24.692Z,16.27
2018-03-23T03:04:51.706Z,17.73
2018-03-23T03:09:58.166Z,24.60
2018-03-23T03:12:25.274Z,19.07
2018-03-23T03:14:52.286Z,19.00
2018-03-23T03:17:19.293Z,18.33
2018-03-23T03:19:47.093Z,18.60
2018-03-23T03:22:14.924Z,20.83
2018-03-23T03:24:41.935Z,19.23
2018-03-23T03:27:08.996Z,18.33
2018-03-23T03:29:36.009Z,18.50
2018-03-23T03:32:03.038Z,17.70
2018-03-23T03:34:30.108Z,17.80
2018-03-23T03:36:57.124Z,20.13
2018-03-23T03:39:24.151Z,21.60
2018-03-23T03:41:52.134Z,20.03
2018-03-23T03:44:19.152Z,20.10
2018-03-23T03:46:47.020Z,20.70
2018-03-23T03:49:14.095Z,21.13
2018-03-23T03:51:41.923Z,21.37
2018-03-23T03:54:08.945Z,21.87
2018-03-23T03:56:36.870Z,20.17
2018-03-23T03:59:03.901Z,21.47
2018-03-23T04:01:30.915Z,20.27
2018-03-23T04:03:57.963Z,19.67
2018-03-23T04:06:24.982Z,20.87
2018-03-23T04:08:52.826Z,22.43
2018-03-23T04:11:19.894Z,21.93
2018-03-23T04:13:46.919Z,21.37
2018-03-23T04:18:55.535Z,29.08
2018-03-23T04:21:22.547Z,24.77
2018-03-23T04:23:49.561Z,22.57
2018-03-23T04:26:16.596Z,23.00
2018-03-23T04:28:44.469Z,22.70
2018-03-23T04:31:11.486Z,24.20
2018-03-23T04:33:39.993Z,22.80
2018-03-23T04:36:06.998Z,22.27
2018-03-23T04:38:34.959Z,21.27
2018-03-23T04:41:02.036Z,21.90
2018-03-23T04:43:29.050Z,21.33
2018-03-23T04:45:56.066Z,22.93
2018-03-23T04:48:23.120Z,22.17
2018-03-23T04:50:51.858Z,23.93
2018-03-23T04:53:18.869Z,25.17
2018-03-23T04:55:45.967Z,27.50
2018-03-23T04:58:12.979Z,24.17
2018-03-23T05:00:41.218Z,25.23
2018-03-23T05:03:08.264Z,23.10
2018-03-23T05:05:35.284Z,25.33
2018-03-23T05:08:03.226Z,24.47
2018-03-23T05:10:30.255Z,24.87
2018-03-23T05:12:57.272Z,25.27
2018-03-23T05:15:24.319Z,23.30
2018-03-23T05:17:54.578Z,21.33
2018-03-23T05:20:21.596Z,20.77
2018-03-23T05:22:48.692Z,19.93
2018-03-23T05:25:15.855Z,17.87
2018-03-23T05:27:42.873Z,22.83
2018-03-23T05:30:10.732Z,19.97
2018-03-23T05:32:37.787Z,21.83
2018-03-23T05:35:04.790Z,22.97
2018-03-23T05:37:31.892Z,20.90
2018-03-23T05:39:58.935Z,21.70
2018-03-23T05:45:07.722Z,25.95
2018-03-23T05:47:34.729Z,21.93
2018-03-23T05:50:02.076Z,20.80
2018-03-23T05:52:29.127Z,22.73
2018-03-23T05:54:56.139Z,22.17
2018-03-23T05:57:24.043Z,23.43
2018-03-23T05:59:51.112Z,23.03
2018-03-23T06:02:18.098Z,24.97
2018-03-23T06:04:45.115Z,24.83
2018-03-23T06:07:12.189Z,25.17
2018-03-23T06:09:39.212Z,23.70
2018-03-23T06:12:06.229Z,23.13
2018-03-23T06:14:33.279Z,20.17
2018-03-23T06:17:00.306Z,22.73
2018-03-23T06:19:27.345Z,23.13
2018-03-23T06:21:54.413Z,22.87
2018-03-23T06:24:21.424Z,24.87
2018-03-23T06:26:48.434Z,23.20
2018-03-23T06:29:22.660Z,22.20
2018-03-23T06:31:50.416Z,23.60
2018-03-23T06:34:17.695Z,24.07
2018-03-23T06:36:48.751Z,24.10
2018-03-23T06:44:27.949Z,28.15
2018-03-23T06:46:55.017Z,25.33
2018-03-23T06:49:22.901Z,22.80
2018-03-23T06:51:49.919Z,21.87
2018-03-23T06:54:16.962Z,22.63
2018-03-23T06:56:44.006Z,22.07
2018-03-23T06:59:10.996Z,20.80
2018-03-23T07:01:39.907Z,18.83
2018-03-23T07:04:06.975Z,18.47
2018-03-23T07:06:34.091Z,18.73
2018-03-23T07:09:01.132Z,19.50
2018-03-23T07:11:29.082Z,19.87
2018-03-23T07:13:56.099Z,18.93
2018-03-23T07:16:23.167Z,19.90
2018-03-23T07:18:50.180Z,20.50
2018-03-23T07:21:17.294Z,21.67
2018-03-23T07:23:44.355Z,21.03
2018-03-23T07:26:11.372Z,20.87
2018-03-23T07:28:38.386Z,22.53
2018-03-23T07:31:05.435Z,22.77
2018-03-23T07:33:32.458Z,23.77
2018-03-23T07:35:59.557Z,22.13
2018-03-23T07:38:26.605Z,20.97
2018-03-23T07:40:53.630Z,22.10
2018-03-23T07:43:20.640Z,20.50
2018-03-23T07:45:47.707Z,21.30
2018-03-23T07:48:15.663Z,20.93
2018-03-23T07:50:42.682Z,21.27
2018-03-23T07:53:09.749Z,21.60
2018-03-23T07:55:36.774Z,19.13
2018-03-23T07:58:03.780Z,18.50
2018-03-23T08:00:30.843Z,19.83
2018-03-23T08:03:05.071Z,18.73
2018-03-23T08:08:11.834Z,23.15
2018-03-23T08:10:38.894Z,20.53
2018-03-23T08:13:05.919Z,19.43
2018-03-23T08:15:32.932Z,19.60
2018-03-23T08:18:00.012Z,18.43
2018-03-23T08:20:27.873Z,19.03
2018-03-23T08:22:54.895Z,19.70
2018-03-23T08:25:21.950Z,20.07
2018-03-23T08:27:48.992Z,18.27
2018-03-23T08:30:16.003Z,18.80
2018-03-23T08:32:43.047Z,18.73
2018-03-23T08:35:10.061Z,19.23
2018-03-23T08:37:37.102Z,18.73
2018-03-23T08:40:04.144Z,19.60
2018-03-23T08:42:31.151Z,16.07
2018-03-23T08:44:58.176Z,15.30
2018-03-23T08:47:25.939Z,15.10
2018-03-23T08:49:53.725Z,16.43
2018-03-23T08:52:20.734Z,16.57
2018-03-23T08:54:47.784Z,16.53
2018-03-23T08:57:14.824Z,16.53
2018-03-23T08:59:42.691Z,15.43
2018-03-23T09:02:09.740Z,16.40
2018-03-23T09:04:36.751Z,17.37
2018-03-23T09:07:03.773Z,16.03
2018-03-23T09:09:30.813Z,14.10
2018-03-23T09:11:57.830Z,12.77
2018-03-23T09:14:24.844Z,11.20
2018-03-23T09:16:51.910Z,10.83
2018-03-23T09:19:18.926Z,9.60
2018-03-23T09:21:45.971Z,9.30
2018-03-23T09:24:12.975Z,8.63
2018-03-23T09:26:39.992Z,7.90
2018-03-23T09:29:07.010Z,9.07
2018-03-23T09:31:34.076Z,9.20
2018-03-23T09:36:41.592Z,12.27
2018-03-23T09:39:08.619Z,11.93
2018-03-23T09:41:35.624Z,10.57
2018-03-23T09:44:03.616Z,11.93
2018-03-23T09:46:30.626Z,11.57
2018-03-23T09:48:57.644Z,11.50
2018-03-23T09:51:24.688Z,12.87
2018-03-23T09:53:51.709Z,12.87
2018-03-23T09:56:18.718Z,12.53
2018-03-23T09:58:45.787Z,14.33
2018-03-23T10:01:12.812Z,12.87
2018-03-23T10:03:39.832Z,14.10
2018-03-23T10:06:06.874Z,10.80
2018-03-23T10:08:33.888Z,12.37
2018-03-23T10:11:00.903Z,12.13
2018-03-23T10:13:27.951Z,11.77
2018-03-23T10:15:54.965Z,9.40
2018-03-23T10:18:22.071Z,10.07
2018-03-23T10:20:49.187Z,10.13
2018-03-23T10:23:16.158Z,11.30
2018-03-23T10:25:43.175Z,10.37
2018-03-23T10:28:10.217Z,12.10
2018-03-23T10:30:37.322Z,15.40
2018-03-23T10:33:04.330Z,15.43
2018-03-23T10:35:31.838Z,14.30
2018-03-23T10:37:58.817Z,14.40
2018-03-23T10:40:25.827Z,14.43
2018-03-23T10:42:53.400Z,13.07
2018-03-23T10:45:20.412Z,13.73
2018-03-23T10:47:47.426Z,14.13
2018-03-23T10:50:14.467Z,11.07
2018-03-23T10:52:41.514Z,12.63
2018-03-23T10:55:08.562Z,12.20
2018-03-23T10:57:35.628Z,11.50
2018-03-23T11:02:42.712Z,13.88
2018-03-23T11:05:09.730Z,11.23
2018-03-23T11:07:36.740Z,10.50
2018-03-23T11:10:14.051Z,10.90
2018-03-23T11:12:41.043Z,8.20
2018-03-23T11:15:08.029Z,8.13
2018-03-23T11:17:35.078Z,7.77
2018-03-23T11:20:02.087Z,8.63
2018-03-23T11:22:29.107Z,8.83
2018-03-23T11:24:56.172Z,8.90
2018-03-23T11:27:23.196Z,8.63
2018-03-23T11:29:50.206Z,6.03
2018-03-23T11:32:18.103Z,5.80
2018-03-23T11:34:45.127Z,6.13
2018-03-23T11:37:12.128Z,6.70
2018-03-23T11:39:39.169Z,6.77
2018-03-23T11:42:07.430Z,7.43
2018-03-23T11:44:34.440Z,6.83
2018-03-23T11:47:01.581Z,5.77
2018-03-23T11:49:28.596Z,5.53
2018-03-23T11:51:55.606Z,7.07
2018-03-23T11:54:24.512Z,7.57
2018-03-23T11:56:51.522Z,8.23
2018-03-23T11:59:18.850Z,7.27
2018-03-23T12:01:45.680Z,7.33
2018-03-23T12:04:13.062Z,7.07
2018-03-23T12:06:40.101Z,5.83
2018-03-23T12:09:07.148Z,4.83
2018-03-23T12:11:34.243Z,5.50
2018-03-23T12:14:01.255Z,6.27
2018-03-23T12:16:30.313Z,4.80
2018-03-23T12:18:55.318Z,6.00
2018-03-23T12:21:22.587Z,6.10
2018-03-23T12:23:49.742Z,5.83
2018-03-23T12:26:16.850Z,5.30
2018-03-23T12:34:00.778Z,5.72
2018-03-23T12:36:27.844Z,4.40
2018-03-23T12:38:54.853Z,5.43
2018-03-23T12:41:21.864Z,5.33
2018-03-23T12:43:48.928Z,3.97
2018-03-23T12:46:15.934Z,5.30
2018-03-23T12:48:42.942Z,5.50
2018-03-23T12:51:09.980Z,5.20
2018-03-23T12:53:37.006Z,5.07
2018-03-23T12:56:04.013Z,4.10
2018-03-23T12:58:31.071Z,4.57
2018-03-23T13:00:58.083Z,4.20
2018-03-23T13:03:25.097Z,3.53
2018-03-23T13:05:52.146Z,3.73
2018-03-23T13:08:19.243Z,2.87
2018-03-23T13:10:46.262Z,3.60
2018-03-23T13:13:13.326Z,3.33
2018-03-23T13:15:40.337Z,3.37
2018-03-23T13:18:07.345Z,3.03
2018-03-23T13:20:34.418Z,3.13
2018-03-23T13:23:01.531Z,2.90
2018-03-23T13:25:28.536Z,3.77
2018-03-23T13:27:55.580Z,3.23
2018-03-23T13:30:22.590Z,4.47
2018-03-23T13:32:49.598Z,3.33
2018-03-23T13:35:16.662Z,3.90
2018-03-23T13:37:43.672Z,2.67
2018-03-23T13:40:10.682Z,2.73
2018-03-23T13:42:37.843Z,2.70
2018-03-23T13:45:04.943Z,2.60
2018-03-23T13:47:31.962Z,2.53
2018-03-23T13:49:59.075Z,1.97
2018-03-23T13:52:26.022Z,1.80
2018-03-23T13:57:31.553Z,1.50
2018-03-23T13:59:58.566Z,1.90
2018-03-23T14:02:25.597Z,1.20
2018-03-23T14:04:54.156Z,1.57
2018-03-23T14:07:21.262Z,1.40
2018-03-23T14:09:48.279Z,1.40
2018-03-23T14:12:15.330Z,1.60
2018-03-23T14:14:42.359Z,1.13
2018-03-23T14:17:09.369Z,1.50
2018-03-23T14:19:36.422Z,1.30
2018-03-23T14:22:03.439Z,1.90
2018-03-23T14:24:30.458Z,1.60
2018-03-23T14:26:57.506Z,1.53
2018-03-23T14:29:24.530Z,1.93
2018-03-23T14:31:51.540Z,1.97
2018-03-23T14:34:18.604Z,1.73
2018-03-23T14:36:45.613Z,1.57
2018-03-23T14:39:12.629Z,1.60
2018-03-23T14:41:39.675Z,1.83
2018-03-23T14:44:06.691Z,2.00
2018-03-23T14:46:33.822Z,1.53
2018-03-23T14:49:00.845Z,1.50
2018-03-23T14:51:27.856Z,1.20
2018-03-23T14:53:54.861Z,1.40
2018-03-23T14:56:21.949Z,2.10
2018-03-23T14:58:48.955Z,1.80
2018-03-23T15:01:16.081Z,1.90
2018-03-23T15:03:43.124Z,1.27
2018-03-23T15:06:10.136Z,1.80
2018-03-23T15:08:37.195Z,1.90
2018-03-23T15:11:04.283Z,1.20
2018-03-23T15:13:31.288Z,1.40
2018-03-23T15:18:36.844Z,1.30
2018-03-23T15:21:03.852Z,1.53
2018-03-23T15:23:31.808Z,1.90
2018-03-23T15:25:58.959Z,2.03
2018-03-23T15:28:25.970Z,2.33
2018-03-23T15:30:52.969Z,2.00
2018-03-23T15:33:20.037Z,2.03
2018-03-23T15:35:47.054Z,2.27
2018-03-23T15:38:14.069Z,2.13
2018-03-23T15:40:41.189Z,1.53
2018-03-23T15:43:08.143Z,1.60
2018-03-23T15:45:35.160Z,1.23
2018-03-23T15:48:02.229Z,1.40
2018-03-23T15:50:29.246Z,1.70
2018-03-23T15:52:56.273Z,1.67
2018-03-23T15:55:23.317Z,1.57
2018-03-23T15:57:50.326Z,1.30
2018-03-23T16:00:17.334Z,1.47
2018-03-23T16:02:44.373Z,1.90
2018-03-23T16:05:11.394Z,2.57
2018-03-23T16:07:38.410Z,9.57
2018-03-23T16:10:05.448Z,8.43
2018-03-23T16:12:32.481Z,3.13
2018-03-23T16:14:59.488Z,2.00
2018-03-23T16:17:26.620Z,2.40
2018-03-23T16:19:54.462Z,2.53
2018-03-23T16:22:21.477Z,3.00
2018-03-23T16:24:48.521Z,7.90
2018-03-23T16:27:16.485Z,3.43
2018-03-23T16:29:43.495Z,3.10
2018-03-23T16:32:10.570Z,2.20
2018-03-23T16:34:37.755Z,14.33
2018-03-23T16:37:05.025Z,2.90
2018-03-23T16:39:32.052Z,1.90
2018-03-23T16:44:38.012Z,2.20
2018-03-23T16:47:05.088Z,1.70
2018-03-23T16:49:32.119Z,1.60
2018-03-23T16:51:59.184Z,2.13
2018-03-23T16:54:26.182Z,2.13
2018-03-23T16:56:53.208Z,2.60
2018-03-23T16:59:20.255Z,2.93
2018-03-23T17:01:47.319Z,2.60
2018-03-23T17:04:14.310Z,4.50
2018-03-23T17:06:41.357Z,2.90
2018-03-23T17:09:08.381Z,3.73
2018-03-23T17:11:35.419Z,3.80
2018-03-23T17:14:02.519Z,3.83
2018-03-23T17:16:30.458Z,3.67
2018-03-23T17:18:57.479Z,4.60
2018-03-23T17:21:24.707Z,4.03
2018-03-23T17:23:51.726Z,4.30
2018-03-23T17:26:18.737Z,4.07
2018-03-23T17:28:45.787Z,4.17
2018-03-23T17:31:12.814Z,4.20
2018-03-23T17:33:39.817Z,4.23
2018-03-23T17:36:08.117Z,5.20
2018-03-23T17:38:36.984Z,4.77
2018-03-23T17:41:04.009Z,4.77
2018-03-23T17:43:31.053Z,4.73
2018-03-23T17:45:59.012Z,22.10
2018-03-23T17:48:26.023Z,30.20
2018-03-23T17:50:53.072Z,41.33
2018-03-23T17:55:58.629Z,22.00
2018-03-23T17:58:25.640Z,17.17
2018-03-23T18:00:52.752Z,25.57
2018-03-23T18:03:19.815Z,9.93
2018-03-23T18:05:46.922Z,22.33
2018-03-23T18:08:13.955Z,13.40
2018-03-23T18:10:41.025Z,10.90
2018-03-23T18:13:08.036Z,8.03
2018-03-23T18:15:35.051Z,7.97
2018-03-23T18:18:03.993Z,7.20
2018-03-23T18:20:31.010Z,7.53
2018-03-23T18:22:58.020Z,6.47
2018-03-23T18:25:25.096Z,7.10
2018-03-23T18:27:52.104Z,6.60
2018-03-23T18:30:19.116Z,6.83
2018-03-23T18:32:46.156Z,7.20
2018-03-23T18:35:14.148Z,7.27
2018-03-23T18:37:41.176Z,7.47
2018-03-23T18:40:08.234Z,7.27
2018-03-23T18:42:35.257Z,6.70
2018-03-23T18:45:02.268Z,7.40
2018-03-23T18:47:29.419Z,9.07
2018-03-23T18:49:57.226Z,8.40
2018-03-23T18:52:24.244Z,7.70
2018-03-23T18:54:51.314Z,7.70
2018-03-23T18:57:18.337Z,8.57
2018-03-23T18:59:45.352Z,8.47
2018-03-23T19:02:13.252Z,7.60
2018-03-23T19:04:40.617Z,7.60
2018-03-23T19:07:07.622Z,7.47
2018-03-23T19:09:35.491Z,6.80
2018-03-23T19:12:02.504Z,7.10
2018-03-23T19:14:29.524Z,7.57
2018-03-23T19:16:56.571Z,6.97
2018-03-23T19:22:02.129Z,8.43
2018-03-23T19:24:29.147Z,7.00
2018-03-23T19:26:56.156Z,6.70
2018-03-23T19:29:23.483Z,6.53
2018-03-23T19:31:50.489Z,6.07
2018-03-23T19:34:17.530Z,6.83
2018-03-23T19:36:44.654Z,6.43
2018-03-23T19:39:11.676Z,6.30
2018-03-23T19:41:38.691Z,6.50
2018-03-23T19:44:05.738Z,6.17
2018-03-23T19:46:32.755Z,5.70
2018-03-23T19:48:59.813Z,6.30
2018-03-23T19:51:26.878Z,5.80
2018-03-23T19:53:53.891Z,6.40
2018-03-23T19:56:24.711Z,6.10
2018-03-23T19:58:51.768Z,6.10
2018-03-23T20:01:18.874Z,5.87
2018-03-23T20:03:45.888Z,6.13
2018-03-23T20:06:12.973Z,6.10
2018-03-23T20:08:39.994Z,5.63
2018-03-23T20:13:50.065Z,7.50
2018-03-23T20:16:17.104Z,5.80
2018-03-23T20:18:44.135Z,5.70
2018-03-23T20:21:11.217Z,5.23
2018-03-23T20:23:38.618Z,5.67
2018-03-23T20:26:05.726Z,4.87
2018-03-23T20:28:32.802Z,5.37
2018-03-23T20:31:01.070Z,5.37
2018-03-23T20:33:28.133Z,5.20
2018-03-23T20:35:55.188Z,5.07
2018-03-23T20:38:22.274Z,5.33
2018-03-23T20:40:49.309Z,5.90
2018-03-23T20:43:16.372Z,5.73
2018-03-23T20:45:43.425Z,6.50
2018-03-23T20:48:10.479Z,5.27
2018-03-23T20:50:37.523Z,4.53
2018-03-23T20:53:04.561Z,5.10
2018-03-23T20:55:31.603Z,5.30
2018-03-23T20:57:58.702Z,4.60
2018-03-23T21:00:26.577Z,3.80
2018-03-23T21:02:53.589Z,4.37
2018-03-23T21:05:20.634Z,4.43
2018-03-23T21:07:47.668Z,5.13
2018-03-23T21:10:14.689Z,5.20
2018-03-23T21:12:41.810Z,5.20
2018-03-23T21:15:08.841Z,5.17
2018-03-23T21:17:35.848Z,4.87
2018-03-23T21:22:41.378Z,5.90
2018-03-23T21:25:08.454Z,5.13
2018-03-23T21:27:35.470Z,4.53
2018-03-23T21:30:02.481Z,4.70
2018-03-23T21:32:30.395Z,4.87
2018-03-23T21:34:59.086Z,5.23
2018-03-23T21:37:26.094Z,5.63
2018-03-23T21:39:53.176Z,5.20
2018-03-23T21:42:20.190Z,5.40
2018-03-23T21:44:47.214Z,6.60
2018-03-23T21:47:14.308Z,7.70
2018-03-23T21:52:15.279Z,6.07
2018-03-23T21:54:42.293Z,7.13
2018-03-23T21:57:09.342Z,6.93
2018-03-23T21:59:36.409Z,5.73
2018-03-23T22:02:03.454Z,6.60
2018-03-23T22:04:30.462Z,7.17
2018-03-23T22:06:57.534Z,6.40
2018-03-23T22:09:24.616Z,5.73
2018-03-23T22:11:51.615Z,6.90
2018-03-23T22:14:18.664Z,6.83
2018-03-23T22:16:46.633Z,6.43
2018-03-23T22:19:13.742Z,7.20
2018-03-23T22:21:40.787Z,8.17
2018-03-23T22:24:07.799Z,7.43
2018-03-23T22:26:34.990Z,8.00
2018-03-23T22:29:02.212Z,8.10
2018-03-23T22:31:29.297Z,8.97
2018-03-23T22:33:57.130Z,8.20
2018-03-23T22:36:24.247Z,8.27
2018-03-23T22:38:51.274Z,9.00
2018-03-23T22:41:18.292Z,8.97
2018-03-23T22:43:45.386Z,7.93
2018-03-23T22:48:53.870Z,8.95
2018-03-23T22:51:20.885Z,7.90
2018-03-23T22:53:47.892Z,8.03
2018-03-23T22:56:14.949Z,7.93
2018-03-23T22:58:41.977Z,7.97
2018-03-23T23:01:09.006Z,8.00
2018-03-23T23:03:36.070Z,7.87
2018-03-23T23:06:03.949Z,8.17
2018-03-23T23:08:30.960Z,8.20
2018-03-23T23:10:58.013Z,8.60
2018-03-23T23:13:25.543Z,8.00
2018-03-23T23:15:54.234Z,7.83
2018-03-23T23:18:21.299Z,8.17
2018-03-23T23:20:48.334Z,7.90
2018-03-23T23:23:15.351Z,7.03
2018-03-23T23:25:42.406Z,6.67
2018-03-23T23:28:09.423Z,6.53
2018-03-23T23:30:36.456Z,7.00
2018-03-23T23:33:03.506Z,4.90
2018-03-23T23:35:30.510Z,5.53
2018-03-23T23:37:57.525Z,6.07
2018-03-23T23:48:21.265Z,6.93
2018-03-23T23:53:33.457Z,7.30
2018-03-23T23:56:00.546Z,5.97
2018-03-23T23:58:27.568Z,5.70
